sensor_id;sensor_type;location;lat;lon;timestamp;temperature;humidity
2999;DHT22;1509;51.964;7.628;2023-07-31T00:00:06;15.60;99.90
2999;DHT22;1509;51.964;7.628;2023-07-31T00:02:34;15.60;99.90
2999;DHT22;1509;51.964;7.628;2023-07-31T00:05:00;15.40;99.90
2999;DHT22;1509;51.964;7.628;2023-07-31T00:07:25;15.60;99.90
2999;DHT22;1509;51.964;7.628;2023-07-31T00:09:51;15.60;99.90
2999;DHT22;1509;51.964;7.628;2023-07-31T00:12:19;15.70;99.90
2999;DHT22;1509;51.964;7.628;2023-07-31T00:14:45;15.50;99.90
2999;DHT22;1509;51.964;7.628;2023-07-31T00:17:11;15.40;99.90
2999;DHT22;1509;51.964;7.628;2023-07-31T00:19:36;15.70;99.90
2999;DHT22;1509;51.964;7.628;2023-07-31T00:22:02;15.40;99.90
2999;DHT22;1509;51.964;7.628;2023-07-31T00:24:28;15.30;99.90
2999;DHT22;1509;51.964;7.628;2023-07-31T00:26:53;15.20;99.90
2999;DHT22;1509;51.964;7.628;2023-07-31T00:29:19;15.30;99.90
2999;DHT22;1509;51.964;7.628;2023-07-31T00:31:44;15.00;99.90
2999;DHT22;1509;51.964;7.628;2023-07-31T00:34:10;15.00;99.90
2999;DHT22;1509;51.964;7.628;2023-07-31T00:36:35;15.00;99.90
2999;DHT22;1509;51.964;7.628;2023-07-31T00:39:01;14.70;99.90
2999;DHT22;1509;51.964;7.628;2023-07-31T00:41:27;15.00;99.90
2999;DHT22;1509;51.964;7.628;2023-07-31T00:43:52;14.90;99.90
2999;DHT22;1509;51.964;7.628;2023-07-31T00:46:18;14.90;99.90
2999;DHT22;1509;51.964;7.628;2023-07-31T00:48:44;14.70;99.90
2999;DHT22;1509;51.964;7.628;2023-07-31T00:51:10;15.10;99.90
2999;DHT22;1509;51.964;7.628;2023-07-31T00:53:36;14.70;99.90
2999;DHT22;1509;51.964;7.628;2023-07-31T00:56:03;14.90;99.90
2999;DHT22;1509;51.964;7.628;2023-07-31T00:58:29;14.80;99.90
2999;DHT22;1509;51.964;7.628;2023-07-31T01:00:54;14.80;99.90
2999;DHT22;1509;51.964;7.628;2023-07-31T01:03:20;14.90;99.90
2999;DHT22;1509;51.964;7.628;2023-07-31T01:05:53;14.70;99.90
2999;DHT22;1509;51.964;7.628;2023-07-31T01:08:32;14.70;99.90
2999;DHT22;1509;51.964;7.628;2023-07-31T01:11:15;14.80;99.90
2999;DHT22;1509;51.964;7.628;2023-07-31T01:13:43;14.80;99.90
2999;DHT22;1509;51.964;7.628;2023-07-31T01:16:09;14.80;99.90
2999;DHT22;1509;51.964;7.628;2023-07-31T01:18:35;15.00;99.90
2999;DHT22;1509;51.964;7.628;2023-07-31T01:21:23;14.70;99.90
2999;DHT22;1509;51.964;7.628;2023-07-31T01:26:38;14.80;99.90
2999;DHT22;1509;51.964;7.628;2023-07-31T01:29:16;14.90;99.90
2999;DHT22;1509;51.964;7.628;2023-07-31T01:31:46;14.80;99.90
2999;DHT22;1509;51.964;7.628;2023-07-31T01:34:14;14.80;99.90
2999;DHT22;1509;51.964;7.628;2023-07-31T01:36:41;14.80;99.90
2999;DHT22;1509;51.964;7.628;2023-07-31T01:39:07;14.80;99.90
2999;DHT22;1509;51.964;7.628;2023-07-31T01:41:33;14.80;99.90
2999;DHT22;1509;51.964;7.628;2023-07-31T01:43:59;14.80;99.90
2999;DHT22;1509;51.964;7.628;2023-07-31T01:46:24;14.80;99.90
2999;DHT22;1509;51.964;7.628;2023-07-31T01:48:50;14.80;99.90
2999;DHT22;1509;51.964;7.628;2023-07-31T01:51:15;15.00;99.90
2999;DHT22;1509;51.964;7.628;2023-07-31T01:53:41;14.80;99.90
2999;DHT22;1509;51.964;7.628;2023-07-31T01:56:07;14.90;99.90
2999;DHT22;1509;51.964;7.628;2023-07-31T01:58:32;14.80;99.90
2999;DHT22;1509;51.964;7.628;2023-07-31T02:00:58;14.80;99.90
2999;DHT22;1509;51.964;7.628;2023-07-31T02:03:23;14.80;99.90
2999;DHT22;1509;51.964;7.628;2023-07-31T02:05:49;14.90;99.90
2999;DHT22;1509;51.964;7.628;2023-07-31T02:08:16;14.80;99.90
2999;DHT22;1509;51.964;7.628;2023-07-31T02:10:41;14.70;99.90
2999;DHT22;1509;51.964;7.628;2023-07-31T02:13:07;14.80;99.90
2999;DHT22;1509;51.964;7.628;2023-07-31T02:15:33;14.80;99.90
2999;DHT22;1509;51.964;7.628;2023-07-31T02:17:58;14.60;99.90
2999;DHT22;1509;51.964;7.628;2023-07-31T02:20:24;14.70;99.90
2999;DHT22;1509;51.964;7.628;2023-07-31T02:22:50;14.80;99.90
2999;DHT22;1509;51.964;7.628;2023-07-31T02:25:15;14.80;99.90
2999;DHT22;1509;51.964;7.628;2023-07-31T02:27:41;15.00;99.90
2999;DHT22;1509;51.964;7.628;2023-07-31T02:30:07;14.90;99.90
2999;DHT22;1509;51.964;7.628;2023-07-31T02:32:33;15.00;99.90
2999;DHT22;1509;51.964;7.628;2023-07-31T02:34:59;15.00;99.90
2999;DHT22;1509;51.964;7.628;2023-07-31T02:37:25;15.00;99.90
2999;DHT22;1509;51.964;7.628;2023-07-31T02:39:51;15.20;99.90
2999;DHT22;1509;51.964;7.628;2023-07-31T02:42:16;15.40;99.90
2999;DHT22;1509;51.964;7.628;2023-07-31T02:44:42;15.30;99.90
2999;DHT22;1509;51.964;7.628;2023-07-31T02:47:07;15.40;99.90
2999;DHT22;1509;51.964;7.628;2023-07-31T02:49:33;15.40;99.90
2999;DHT22;1509;51.964;7.628;2023-07-31T02:51:58;15.40;99.90
2999;DHT22;1509;51.964;7.628;2023-07-31T02:54:24;15.50;99.90
2999;DHT22;1509;51.964;7.628;2023-07-31T02:56:50;15.40;99.90
2999;DHT22;1509;51.964;7.628;2023-07-31T02:59:16;15.50;99.90
2999;DHT22;1509;51.964;7.628;2023-07-31T03:01:42;15.50;99.90
2999;DHT22;1509;51.964;7.628;2023-07-31T03:04:07;15.50;99.90
2999;DHT22;1509;51.964;7.628;2023-07-31T03:06:33;15.80;99.90
2999;DHT22;1509;51.964;7.628;2023-07-31T03:08:58;15.60;99.90
2999;DHT22;1509;51.964;7.628;2023-07-31T03:11:24;15.50;99.90
2999;DHT22;1509;51.964;7.628;2023-07-31T03:13:49;15.50;99.90
2999;DHT22;1509;51.964;7.628;2023-07-31T03:16:15;15.50;99.90
2999;DHT22;1509;51.964;7.628;2023-07-31T03:18:41;15.50;99.90
2999;DHT22;1509;51.964;7.628;2023-07-31T03:21:06;15.70;99.90
2999;DHT22;1509;51.964;7.628;2023-07-31T03:23:32;15.50;99.90
2999;DHT22;1509;51.964;7.628;2023-07-31T03:25:58;15.50;99.90
2999;DHT22;1509;51.964;7.628;2023-07-31T03:28:24;15.50;99.90
2999;DHT22;1509;51.964;7.628;2023-07-31T03:30:50;15.40;99.90
2999;DHT22;1509;51.964;7.628;2023-07-31T03:33:16;15.50;99.90
2999;DHT22;1509;51.964;7.628;2023-07-31T03:35:41;15.50;99.90
2999;DHT22;1509;51.964;7.628;2023-07-31T03:38:07;15.50;99.90
2999;DHT22;1509;51.964;7.628;2023-07-31T03:40:32;15.50;99.90
2999;DHT22;1509;51.964;7.628;2023-07-31T03:42:58;15.70;99.90
2999;DHT22;1509;51.964;7.628;2023-07-31T03:45:23;15.40;99.90
2999;DHT22;1509;51.964;7.628;2023-07-31T03:47:49;15.60;99.90
2999;DHT22;1509;51.964;7.628;2023-07-31T03:50:15;15.60;99.90
2999;DHT22;1509;51.964;7.628;2023-07-31T03:52:41;15.50;99.90
2999;DHT22;1509;51.964;7.628;2023-07-31T03:55:07;15.60;99.90
2999;DHT22;1509;51.964;7.628;2023-07-31T03:57:32;15.50;99.90
2999;DHT22;1509;51.964;7.628;2023-07-31T03:59:58;15.60;99.90
2999;DHT22;1509;51.964;7.628;2023-07-31T04:02:27;15.50;99.90
2999;DHT22;1509;51.964;7.628;2023-07-31T04:04:52;15.40;99.90
2999;DHT22;1509;51.964;7.628;2023-07-31T04:07:18;15.40;99.90
2999;DHT22;1509;51.964;7.628;2023-07-31T04:09:43;15.40;99.90
2999;DHT22;1509;51.964;7.628;2023-07-31T04:12:09;15.50;99.90
2999;DHT22;1509;51.964;7.628;2023-07-31T04:14:35;15.40;99.90
2999;DHT22;1509;51.964;7.628;2023-07-31T04:17:00;15.40;99.90
2999;DHT22;1509;51.964;7.628;2023-07-31T04:19:26;15.40;99.90
2999;DHT22;1509;51.964;7.628;2023-07-31T04:21:51;15.20;99.90
2999;DHT22;1509;51.964;7.628;2023-07-31T04:24:17;15.30;99.90
2999;DHT22;1509;51.964;7.628;2023-07-31T04:26:52;15.30;99.90
2999;DHT22;1509;51.964;7.628;2023-07-31T04:29:18;15.30;99.90
2999;DHT22;1509;51.964;7.628;2023-07-31T04:31:43;15.30;99.90
2999;DHT22;1509;51.964;7.628;2023-07-31T04:34:09;15.30;99.90
2999;DHT22;1509;51.964;7.628;2023-07-31T04:36:35;15.30;99.90
2999;DHT22;1509;51.964;7.628;2023-07-31T04:39:01;15.50;99.90
2999;DHT22;1509;51.964;7.628;2023-07-31T04:41:26;15.40;99.90
2999;DHT22;1509;51.964;7.628;2023-07-31T04:43:52;15.20;99.90
2999;DHT22;1509;51.964;7.628;2023-07-31T04:46:18;15.40;99.90
2999;DHT22;1509;51.964;7.628;2023-07-31T04:48:43;15.60;99.90
2999;DHT22;1509;51.964;7.628;2023-07-31T04:51:09;15.50;99.90
2999;DHT22;1509;51.964;7.628;2023-07-31T04:53:35;15.50;99.90
2999;DHT22;1509;51.964;7.628;2023-07-31T04:56:01;15.50;99.90
2999;DHT22;1509;51.964;7.628;2023-07-31T04:58:26;15.60;99.90
2999;DHT22;1509;51.964;7.628;2023-07-31T05:00:52;15.70;99.90
2999;DHT22;1509;51.964;7.628;2023-07-31T05:03:18;15.60;99.90
2999;DHT22;1509;51.964;7.628;2023-07-31T05:05:43;15.50;99.90
2999;DHT22;1509;51.964;7.628;2023-07-31T05:08:09;15.50;99.90
2999;DHT22;1509;51.964;7.628;2023-07-31T05:10:37;15.50;99.90
2999;DHT22;1509;51.964;7.628;2023-07-31T05:13:03;15.50;99.90
2999;DHT22;1509;51.964;7.628;2023-07-31T05:15:29;15.50;99.90
2999;DHT22;1509;51.964;7.628;2023-07-31T05:17:54;15.50;99.90
2999;DHT22;1509;51.964;7.628;2023-07-31T05:20:20;15.70;99.90
2999;DHT22;1509;51.964;7.628;2023-07-31T05:22:46;15.50;99.90
2999;DHT22;1509;51.964;7.628;2023-07-31T05:25:12;15.60;99.90
2999;DHT22;1509;51.964;7.628;2023-07-31T05:27:37;15.60;99.90
2999;DHT22;1509;51.964;7.628;2023-07-31T05:30:04;15.60;99.90
2999;DHT22;1509;51.964;7.628;2023-07-31T05:32:29;15.60;99.90
2999;DHT22;1509;51.964;7.628;2023-07-31T05:34:55;15.70;99.90
2999;DHT22;1509;51.964;7.628;2023-07-31T05:37:21;15.60;99.90
2999;DHT22;1509;51.964;7.628;2023-07-31T05:39:46;15.70;99.90
2999;DHT22;1509;51.964;7.628;2023-07-31T05:42:12;15.60;99.90
2999;DHT22;1509;51.964;7.628;2023-07-31T05:44:38;15.60;99.90
2999;DHT22;1509;51.964;7.628;2023-07-31T05:47:03;15.90;99.90
2999;DHT22;1509;51.964;7.628;2023-07-31T05:49:30;15.90;99.90
2999;DHT22;1509;51.964;7.628;2023-07-31T05:51:55;16.00;99.90
2999;DHT22;1509;51.964;7.628;2023-07-31T05:54:21;16.00;99.90
2999;DHT22;1509;51.964;7.628;2023-07-31T05:56:46;16.00;99.90
2999;DHT22;1509;51.964;7.628;2023-07-31T05:59:12;16.10;99.90
2999;DHT22;1509;51.964;7.628;2023-07-31T06:01:38;16.00;99.90
2999;DHT22;1509;51.964;7.628;2023-07-31T06:04:04;16.10;99.90
2999;DHT22;1509;51.964;7.628;2023-07-31T06:06:30;16.10;99.90
2999;DHT22;1509;51.964;7.628;2023-07-31T06:08:55;16.30;99.90
2999;DHT22;1509;51.964;7.628;2023-07-31T06:11:21;16.10;99.90
2999;DHT22;1509;51.964;7.628;2023-07-31T06:13:47;16.10;99.90
2999;DHT22;1509;51.964;7.628;2023-07-31T06:16:14;16.00;99.90
2999;DHT22;1509;51.964;7.628;2023-07-31T06:18:41;16.00;99.90
2999;DHT22;1509;51.964;7.628;2023-07-31T06:21:07;16.00;99.90
2999;DHT22;1509;51.964;7.628;2023-07-31T06:23:33;15.90;99.90
2999;DHT22;1509;51.964;7.628;2023-07-31T06:25:58;15.80;99.90
2999;DHT22;1509;51.964;7.628;2023-07-31T06:28:28;15.90;99.90
2999;DHT22;1509;51.964;7.628;2023-07-31T06:30:55;15.80;99.90
2999;DHT22;1509;51.964;7.628;2023-07-31T06:33:20;15.90;99.90
2999;DHT22;1509;51.964;7.628;2023-07-31T06:35:46;16.00;99.90
2999;DHT22;1509;51.964;7.628;2023-07-31T06:38:11;16.00;99.90
2999;DHT22;1509;51.964;7.628;2023-07-31T06:40:37;16.10;99.90
2999;DHT22;1509;51.964;7.628;2023-07-31T06:43:03;16.10;99.90
2999;DHT22;1509;51.964;7.628;2023-07-31T06:45:35;16.00;99.90
2999;DHT22;1509;51.964;7.628;2023-07-31T06:48:01;16.20;99.90
2999;DHT22;1509;51.964;7.628;2023-07-31T06:50:31;16.30;99.90
2999;DHT22;1509;51.964;7.628;2023-07-31T06:52:57;16.30;99.90
2999;DHT22;1509;51.964;7.628;2023-07-31T06:55:23;16.10;99.90
2999;DHT22;1509;51.964;7.628;2023-07-31T06:57:50;16.20;99.90
2999;DHT22;1509;51.964;7.628;2023-07-31T07:00:17;16.20;99.90
2999;DHT22;1509;51.964;7.628;2023-07-31T07:02:43;16.20;99.90
2999;DHT22;1509;51.964;7.628;2023-07-31T07:05:09;16.20;99.90
2999;DHT22;1509;51.964;7.628;2023-07-31T07:07:35;16.30;99.90
2999;DHT22;1509;51.964;7.628;2023-07-31T07:10:01;16.10;99.90
2999;DHT22;1509;51.964;7.628;2023-07-31T07:12:29;16.10;99.90
2999;DHT22;1509;51.964;7.628;2023-07-31T07:14:55;16.20;99.90
2999;DHT22;1509;51.964;7.628;2023-07-31T07:17:21;16.10;99.90
2999;DHT22;1509;51.964;7.628;2023-07-31T07:19:48;16.00;99.90
2999;DHT22;1509;51.964;7.628;2023-07-31T07:22:13;15.80;99.90
2999;DHT22;1509;51.964;7.628;2023-07-31T07:24:39;15.90;99.90
2999;DHT22;1509;51.964;7.628;2023-07-31T07:27:05;15.90;99.90
2999;DHT22;1509;51.964;7.628;2023-07-31T07:29:31;15.90;99.90
2999;DHT22;1509;51.964;7.628;2023-07-31T07:31:56;16.00;99.90
2999;DHT22;1509;51.964;7.628;2023-07-31T07:34:28;15.70;99.90
2999;DHT22;1509;51.964;7.628;2023-07-31T07:36:54;16.00;99.90
2999;DHT22;1509;51.964;7.628;2023-07-31T07:39:19;15.90;99.90
2999;DHT22;1509;51.964;7.628;2023-07-31T07:41:46;15.80;99.90
2999;DHT22;1509;51.964;7.628;2023-07-31T07:44:12;16.00;99.90
2999;DHT22;1509;51.964;7.628;2023-07-31T07:46:40;16.00;99.90
2999;DHT22;1509;51.964;7.628;2023-07-31T07:49:06;16.00;99.90
2999;DHT22;1509;51.964;7.628;2023-07-31T07:51:31;16.00;99.90
2999;DHT22;1509;51.964;7.628;2023-07-31T07:53:58;16.00;99.90
2999;DHT22;1509;51.964;7.628;2023-07-31T07:56:25;16.00;99.90
2999;DHT22;1509;51.964;7.628;2023-07-31T07:58:51;16.10;99.90
2999;DHT22;1509;51.964;7.628;2023-07-31T08:01:16;16.10;99.90
2999;DHT22;1509;51.964;7.628;2023-07-31T08:03:42;16.00;99.90
2999;DHT22;1509;51.964;7.628;2023-07-31T08:06:08;16.10;99.90
2999;DHT22;1509;51.964;7.628;2023-07-31T08:08:35;16.20;99.90
2999;DHT22;1509;51.964;7.628;2023-07-31T08:11:01;16.20;99.90
2999;DHT22;1509;51.964;7.628;2023-07-31T08:13:26;16.30;99.90
2999;DHT22;1509;51.964;7.628;2023-07-31T08:15:52;16.20;99.90
2999;DHT22;1509;51.964;7.628;2023-07-31T08:18:17;16.30;99.90
2999;DHT22;1509;51.964;7.628;2023-07-31T08:20:44;16.20;99.90
2999;DHT22;1509;51.964;7.628;2023-07-31T08:23:09;16.40;99.90
2999;DHT22;1509;51.964;7.628;2023-07-31T08:25:35;16.20;99.90
2999;DHT22;1509;51.964;7.628;2023-07-31T08:28:02;16.40;99.90
2999;DHT22;1509;51.964;7.628;2023-07-31T08:30:28;16.20;99.90
2999;DHT22;1509;51.964;7.628;2023-07-31T08:32:53;16.40;99.90
2999;DHT22;1509;51.964;7.628;2023-07-31T08:35:19;16.20;99.90
2999;DHT22;1509;51.964;7.628;2023-07-31T08:37:44;16.30;99.90
2999;DHT22;1509;51.964;7.628;2023-07-31T08:40:12;16.20;99.90
2999;DHT22;1509;51.964;7.628;2023-07-31T08:42:46;16.40;99.90
2999;DHT22;1509;51.964;7.628;2023-07-31T08:45:19;16.40;99.90
2999;DHT22;1509;51.964;7.628;2023-07-31T08:47:49;16.60;99.90
2999;DHT22;1509;51.964;7.628;2023-07-31T08:50:18;16.40;99.90
2999;DHT22;1509;51.964;7.628;2023-07-31T08:52:45;16.40;99.90
2999;DHT22;1509;51.964;7.628;2023-07-31T08:55:11;16.30;99.90
2999;DHT22;1509;51.964;7.628;2023-07-31T08:57:38;16.40;99.90
2999;DHT22;1509;51.964;7.628;2023-07-31T09:00:05;16.30;99.90
2999;DHT22;1509;51.964;7.628;2023-07-31T09:03:07;16.40;99.90
2999;DHT22;1509;51.964;7.628;2023-07-31T09:05:36;16.40;99.90
2999;DHT22;1509;51.964;7.628;2023-07-31T09:08:09;16.40;99.90
2999;DHT22;1509;51.964;7.628;2023-07-31T09:10:35;16.40;99.90
2999;DHT22;1509;51.964;7.628;2023-07-31T09:13:02;16.30;99.90
2999;DHT22;1509;51.964;7.628;2023-07-31T09:15:28;16.30;99.90
2999;DHT22;1509;51.964;7.628;2023-07-31T09:17:59;16.20;99.90
2999;DHT22;1509;51.964;7.628;2023-07-31T09:20:28;16.30;99.90
2999;DHT22;1509;51.964;7.628;2023-07-31T09:22:55;16.30;99.90
2999;DHT22;1509;51.964;7.628;2023-07-31T09:25:25;16.30;99.90
2999;DHT22;1509;51.964;7.628;2023-07-31T09:27:54;16.30;99.90
2999;DHT22;1509;51.964;7.628;2023-07-31T09:30:20;16.10;99.90
2999;DHT22;1509;51.964;7.628;2023-07-31T09:32:48;16.30;99.90
2999;DHT22;1509;51.964;7.628;2023-07-31T09:35:27;16.20;99.90
2999;DHT22;1509;51.964;7.628;2023-07-31T09:37:59;16.30;99.90
2999;DHT22;1509;51.964;7.628;2023-07-31T09:40:32;16.30;99.90
2999;DHT22;1509;51.964;7.628;2023-07-31T09:43:09;16.30;99.90
2999;DHT22;1509;51.964;7.628;2023-07-31T09:45:37;16.40;99.90
2999;DHT22;1509;51.964;7.628;2023-07-31T09:48:03;16.40;99.90
2999;DHT22;1509;51.964;7.628;2023-07-31T09:50:31;16.40;99.90
2999;DHT22;1509;51.964;7.628;2023-07-31T09:52:57;16.50;99.90
2999;DHT22;1509;51.964;7.628;2023-07-31T09:55:24;16.50;99.90
2999;DHT22;1509;51.964;7.628;2023-07-31T09:57:50;16.50;99.90
2999;DHT22;1509;51.964;7.628;2023-07-31T10:00:17;16.40;99.90
2999;DHT22;1509;51.964;7.628;2023-07-31T10:02:46;16.40;99.90
2999;DHT22;1509;51.964;7.628;2023-07-31T10:05:13;16.40;99.90
2999;DHT22;1509;51.964;7.628;2023-07-31T10:07:48;16.40;99.90
2999;DHT22;1509;51.964;7.628;2023-07-31T10:10:16;16.60;99.90
2999;DHT22;1509;51.964;7.628;2023-07-31T10:12:42;16.20;99.90
2999;DHT22;1509;51.964;7.628;2023-07-31T10:15:09;16.50;99.90
2999;DHT22;1509;51.964;7.628;2023-07-31T10:17:35;16.50;99.90
2999;DHT22;1509;51.964;7.628;2023-07-31T10:20:02;16.40;99.90
2999;DHT22;1509;51.964;7.628;2023-07-31T10:22:30;16.40;99.90
2999;DHT22;1509;51.964;7.628;2023-07-31T10:24:58;16.60;99.90
2999;DHT22;1509;51.964;7.628;2023-07-31T10:27:24;16.60;99.90
2999;DHT22;1509;51.964;7.628;2023-07-31T10:29:51;16.40;99.90
2999;DHT22;1509;51.964;7.628;2023-07-31T10:32:17;16.50;99.90
2999;DHT22;1509;51.964;7.628;2023-07-31T10:34:44;16.40;99.90
2999;DHT22;1509;51.964;7.628;2023-07-31T10:37:30;16.50;99.90
2999;DHT22;1509;51.964;7.628;2023-07-31T10:40:02;16.50;99.90
2999;DHT22;1509;51.964;7.628;2023-07-31T10:42:46;16.50;99.90
2999;DHT22;1509;51.964;7.628;2023-07-31T10:45:13;16.60;99.90
2999;DHT22;1509;51.964;7.628;2023-07-31T10:47:46;16.70;99.90
2999;DHT22;1509;51.964;7.628;2023-07-31T10:50:21;16.60;99.90
2999;DHT22;1509;51.964;7.628;2023-07-31T10:52:55;16.70;99.90
2999;DHT22;1509;51.964;7.628;2023-07-31T10:55:29;16.70;99.90
2999;DHT22;1509;51.964;7.628;2023-07-31T10:57:57;16.70;99.90
2999;DHT22;1509;51.964;7.628;2023-07-31T11:00:29;16.90;99.90
2999;DHT22;1509;51.964;7.628;2023-07-31T11:03:08;16.70;99.90
2999;DHT22;1509;51.964;7.628;2023-07-31T11:10:43;16.70;99.90
2999;DHT22;1509;51.964;7.628;2023-07-31T11:13:09;16.90;99.90
2999;DHT22;1509;51.964;7.628;2023-07-31T11:15:35;16.80;99.90
2999;DHT22;1509;51.964;7.628;2023-07-31T11:18:01;16.70;99.90
2999;DHT22;1509;51.964;7.628;2023-07-31T11:20:32;16.70;99.90
2999;DHT22;1509;51.964;7.628;2023-07-31T11:23:02;16.80;99.90
2999;DHT22;1509;51.964;7.628;2023-07-31T11:25:31;16.80;99.90
2999;DHT22;1509;51.964;7.628;2023-07-31T11:28:05;16.80;99.90
2999;DHT22;1509;51.964;7.628;2023-07-31T11:30:31;17.10;99.90
2999;DHT22;1509;51.964;7.628;2023-07-31T11:32:56;16.90;99.90
2999;DHT22;1509;51.964;7.628;2023-07-31T11:35:22;16.80;99.90
2999;DHT22;1509;51.964;7.628;2023-07-31T11:37:50;16.90;99.90
2999;DHT22;1509;51.964;7.628;2023-07-31T11:40:16;16.90;99.90
2999;DHT22;1509;51.964;7.628;2023-07-31T11:42:45;16.90;99.90
2999;DHT22;1509;51.964;7.628;2023-07-31T11:45:11;16.90;99.90
2999;DHT22;1509;51.964;7.628;2023-07-31T11:47:37;16.90;99.90
2999;DHT22;1509;51.964;7.628;2023-07-31T11:50:10;17.10;99.90
2999;DHT22;1509;51.964;7.628;2023-07-31T11:52:40;17.00;99.90
2999;DHT22;1509;51.964;7.628;2023-07-31T11:55:08;17.00;99.90
2999;DHT22;1509;51.964;7.628;2023-07-31T11:57:36;17.00;99.90
2999;DHT22;1509;51.964;7.628;2023-07-31T12:00:02;17.00;99.90
2999;DHT22;1509;51.964;7.628;2023-07-31T12:02:28;17.10;99.90
2999;DHT22;1509;51.964;7.628;2023-07-31T12:04:54;17.10;99.90
2999;DHT22;1509;51.964;7.628;2023-07-31T12:07:24;17.10;99.90
2999;DHT22;1509;51.964;7.628;2023-07-31T12:10:00;17.20;99.90
2999;DHT22;1509;51.964;7.628;2023-07-31T12:12:30;17.20;99.90
2999;DHT22;1509;51.964;7.628;2023-07-31T12:14:55;17.30;99.90
2999;DHT22;1509;51.964;7.628;2023-07-31T12:17:21;17.10;99.90
2999;DHT22;1509;51.964;7.628;2023-07-31T12:19:48;17.30;99.90
2999;DHT22;1509;51.964;7.628;2023-07-31T12:22:15;17.40;99.90
2999;DHT22;1509;51.964;7.628;2023-07-31T12:24:43;17.50;99.90
2999;DHT22;1509;51.964;7.628;2023-07-31T12:27:14;17.50;99.90
2999;DHT22;1509;51.964;7.628;2023-07-31T12:29:41;17.60;99.90
2999;DHT22;1509;51.964;7.628;2023-07-31T12:32:24;17.60;99.90
2999;DHT22;1509;51.964;7.628;2023-07-31T12:34:53;17.70;99.90
2999;DHT22;1509;51.964;7.628;2023-07-31T12:37:18;17.70;99.90
2999;DHT22;1509;51.964;7.628;2023-07-31T12:39:46;18.00;99.90
2999;DHT22;1509;51.964;7.628;2023-07-31T12:42:14;18.20;99.90
2999;DHT22;1509;51.964;7.628;2023-07-31T12:44:42;18.30;99.90
2999;DHT22;1509;51.964;7.628;2023-07-31T12:47:10;18.30;99.90
2999;DHT22;1509;51.964;7.628;2023-07-31T12:49:36;18.60;99.90
2999;DHT22;1509;51.964;7.628;2023-07-31T12:52:01;18.70;99.90
2999;DHT22;1509;51.964;7.628;2023-07-31T12:54:27;18.80;99.90
2999;DHT22;1509;51.964;7.628;2023-07-31T12:56:58;19.00;99.90
2999;DHT22;1509;51.964;7.628;2023-07-31T12:59:24;19.10;99.90
2999;DHT22;1509;51.964;7.628;2023-07-31T13:01:49;19.20;99.90
2999;DHT22;1509;51.964;7.628;2023-07-31T13:04:15;19.10;99.90
2999;DHT22;1509;51.964;7.628;2023-07-31T13:06:41;19.00;99.90
2999;DHT22;1509;51.964;7.628;2023-07-31T13:09:06;19.00;99.90
2999;DHT22;1509;51.964;7.628;2023-07-31T13:11:32;19.30;99.90
2999;DHT22;1509;51.964;7.628;2023-07-31T13:13:58;19.40;99.90
2999;DHT22;1509;51.964;7.628;2023-07-31T13:16:23;19.40;99.90
2999;DHT22;1509;51.964;7.628;2023-07-31T13:18:49;19.30;99.90
2999;DHT22;1509;51.964;7.628;2023-07-31T13:21:17;19.30;99.90
2999;DHT22;1509;51.964;7.628;2023-07-31T13:23:42;19.10;99.90
2999;DHT22;1509;51.964;7.628;2023-07-31T13:26:08;19.10;99.90
2999;DHT22;1509;51.964;7.628;2023-07-31T13:28:33;19.10;99.90
2999;DHT22;1509;51.964;7.628;2023-07-31T13:30:59;19.00;99.90
2999;DHT22;1509;51.964;7.628;2023-07-31T13:33:25;18.90;99.90
2999;DHT22;1509;51.964;7.628;2023-07-31T13:35:50;18.90;99.90
2999;DHT22;1509;51.964;7.628;2023-07-31T13:38:16;18.90;99.90
2999;DHT22;1509;51.964;7.628;2023-07-31T13:40:41;18.90;99.90
2999;DHT22;1509;51.964;7.628;2023-07-31T13:43:07;18.90;99.90
2999;DHT22;1509;51.964;7.628;2023-07-31T13:45:33;19.00;99.90
2999;DHT22;1509;51.964;7.628;2023-07-31T13:47:58;18.90;99.90
2999;DHT22;1509;51.964;7.628;2023-07-31T13:50:24;19.00;99.90
2999;DHT22;1509;51.964;7.628;2023-07-31T13:52:50;19.30;99.90
2999;DHT22;1509;51.964;7.628;2023-07-31T13:55:16;19.20;99.90
2999;DHT22;1509;51.964;7.628;2023-07-31T13:57:41;19.20;99.90
2999;DHT22;1509;51.964;7.628;2023-07-31T14:00:07;19.30;99.90
2999;DHT22;1509;51.964;7.628;2023-07-31T14:02:33;19.40;99.90
2999;DHT22;1509;51.964;7.628;2023-07-31T14:04:59;19.40;99.90
2999;DHT22;1509;51.964;7.628;2023-07-31T14:07:26;19.40;99.90
2999;DHT22;1509;51.964;7.628;2023-07-31T14:09:52;19.40;99.90
2999;DHT22;1509;51.964;7.628;2023-07-31T14:12:18;19.50;99.90
2999;DHT22;1509;51.964;7.628;2023-07-31T14:14:43;19.40;99.90
2999;DHT22;1509;51.964;7.628;2023-07-31T14:17:09;19.60;99.90
2999;DHT22;1509;51.964;7.628;2023-07-31T14:19:35;19.60;99.90
2999;DHT22;1509;51.964;7.628;2023-07-31T14:22:00;19.50;99.90
2999;DHT22;1509;51.964;7.628;2023-07-31T14:24:26;19.60;99.90
2999;DHT22;1509;51.964;7.628;2023-07-31T14:26:52;19.50;99.90
2999;DHT22;1509;51.964;7.628;2023-07-31T14:29:17;19.40;99.90
2999;DHT22;1509;51.964;7.628;2023-07-31T14:31:46;19.40;99.90
2999;DHT22;1509;51.964;7.628;2023-07-31T14:34:11;19.20;99.90
2999;DHT22;1509;51.964;7.628;2023-07-31T14:36:37;19.30;99.90
2999;DHT22;1509;51.964;7.628;2023-07-31T14:39:03;19.20;99.90
2999;DHT22;1509;51.964;7.628;2023-07-31T14:41:28;19.40;99.90
2999;DHT22;1509;51.964;7.628;2023-07-31T14:43:54;19.50;99.90
2999;DHT22;1509;51.964;7.628;2023-07-31T14:46:19;19.20;99.90
2999;DHT22;1509;51.964;7.628;2023-07-31T14:48:45;19.30;99.90
2999;DHT22;1509;51.964;7.628;2023-07-31T14:51:10;19.20;99.90
2999;DHT22;1509;51.964;7.628;2023-07-31T14:53:36;19.20;99.90
2999;DHT22;1509;51.964;7.628;2023-07-31T14:56:02;19.20;99.90
2999;DHT22;1509;51.964;7.628;2023-07-31T14:58:28;19.10;99.90
2999;DHT22;1509;51.964;7.628;2023-07-31T15:00:53;19.10;99.90
2999;DHT22;1509;51.964;7.628;2023-07-31T15:03:19;18.90;99.90
2999;DHT22;1509;51.964;7.628;2023-07-31T15:05:44;18.70;99.90
2999;DHT22;1509;51.964;7.628;2023-07-31T15:08:10;18.70;99.90
2999;DHT22;1509;51.964;7.628;2023-07-31T15:10:36;18.60;99.90
2999;DHT22;1509;51.964;7.628;2023-07-31T15:13:01;18.60;99.90
2999;DHT22;1509;51.964;7.628;2023-07-31T15:15:27;18.40;99.90
2999;DHT22;1509;51.964;7.628;2023-07-31T15:17:53;18.60;99.90
2999;DHT22;1509;51.964;7.628;2023-07-31T15:20:19;18.50;99.90
2999;DHT22;1509;51.964;7.628;2023-07-31T15:22:45;18.60;99.90
2999;DHT22;1509;51.964;7.628;2023-07-31T15:25:10;18.60;99.90
2999;DHT22;1509;51.964;7.628;2023-07-31T15:27:36;18.50;99.90
2999;DHT22;1509;51.964;7.628;2023-07-31T15:30:01;18.60;99.90
2999;DHT22;1509;51.964;7.628;2023-07-31T15:32:29;18.60;99.90
2999;DHT22;1509;51.964;7.628;2023-07-31T15:34:55;18.60;99.90
2999;DHT22;1509;51.964;7.628;2023-07-31T15:37:20;18.60;99.90
2999;DHT22;1509;51.964;7.628;2023-07-31T15:39:46;18.60;99.90
2999;DHT22;1509;51.964;7.628;2023-07-31T15:42:12;18.60;99.90
2999;DHT22;1509;51.964;7.628;2023-07-31T15:44:37;18.50;99.90
2999;DHT22;1509;51.964;7.628;2023-07-31T15:47:04;18.50;99.90
2999;DHT22;1509;51.964;7.628;2023-07-31T15:49:30;18.50;99.90
2999;DHT22;1509;51.964;7.628;2023-07-31T15:51:56;18.50;99.90
2999;DHT22;1509;51.964;7.628;2023-07-31T15:54:22;18.50;99.90
2999;DHT22;1509;51.964;7.628;2023-07-31T15:56:48;18.40;99.90
2999;DHT22;1509;51.964;7.628;2023-07-31T15:59:13;18.40;99.90
2999;DHT22;1509;51.964;7.628;2023-07-31T16:01:39;18.20;99.90
2999;DHT22;1509;51.964;7.628;2023-07-31T16:04:05;18.20;99.90
2999;DHT22;1509;51.964;7.628;2023-07-31T16:06:31;18.10;99.90